• Join FlightAware (Why Join?)
  • Login
  • US Flag 
07:33PM EDT


 

Airport Tracker/Info


-or-


 

Live Flight TrackerFlight Track Log ✈ N502QS ✈ 21-Aug-2013 ✈ KSLC - KRNO

Flight Track Log - Related Links

Times and Time Zones

All times are in EDT time to prevent confusion due to time zone crossing. See the N502QS flight status page for this flight to view local times or setup timezone preferences in your user account.

Time Position Orientation Groundspeed Altitude Reporting Facility
EDT Latitude Longitude Course Direction KTS MPH feet Rate Location/Type
08:27PM 40.8450 -112.0542 314° West 247 284 8,600  Level Salt Lake Center
08:29PM 40.8797 -112.1689 292° West 288 331 10,000 1,920 Climbing Salt Lake Center
08:30PM 40.8864 -112.2717 275° West 285 328 13,100 3,480 Climbing Salt Lake Center
08:31PM 40.8747 -112.4078 264° West 312 359 17,200 3,480 Climbing Salt Lake Center
08:32PM 40.8669 -112.5219 265° West 315 362 20,300 3,000 Climbing Salt Lake Center
08:33PM 40.8589 -112.6428 265° West 330 380 23,500 3,000 Climbing Salt Lake Center
08:34PM 40.8494 -112.7683 264° West 343 395 26,500 2,760 Climbing Salt Lake Center
08:35PM 40.8444 -112.8950 267° West 347 399 29,300 1,920 Climbing Salt Lake Center
08:36PM 40.8450 -113.0339 270° West 383 441 30,500 1,320 Climbing Salt Lake Center
08:37PM 40.8472 -113.2200 271° West 429 494 32,100 1,980 Climbing Salt Lake Center
08:38PM 40.8461 -113.3797 270° West 435 501 34,600 2,280 Climbing Salt Lake Center
08:39PM 40.8447 -113.5394 269° West 436 502 36,800 2,160 Climbing Salt Lake Center
08:40PM 40.8447 -113.6986 270° West 435 501 39,100 1,920 Climbing Salt Lake Center
08:41PM 40.8431 -113.8553 269° West 430 495 40,800 1,500 Climbing Salt Lake Center
08:42PM 40.8439 -114.0128 270° West 430 495 42,300 900 Climbing Salt Lake Center
08:43PM 40.8417 -114.1744 269° West 437 503 42,700 540 Climbing Salt Lake Center
08:44PM 40.8389 -114.3714 269° West 446 513 43,500 780 Climbing Salt Lake Center
08:45PM 40.8364 -114.5417 269° West 445 512 44,300 600 Climbing Salt Lake Center
08:46PM 40.8314 -114.7000 268° West 450 518 44,800 300 Climbing Salt Lake Center
08:47PM 40.8206 -114.8561 265° West 449 517 45,000 60 Climbing Salt Lake Center
08:48PM 40.7983 -115.0369 261° West 449 517 45,000  Level Salt Lake Center
08:49PM 40.7817 -115.1947 262° West 453 521 45,000  Level Salt Lake Center
08:50PM 40.7606 -115.3775 261° West 451 519 45,000  Level Salt Lake Center
08:51PM 40.7422 -115.5314 261° West 447 514 45,000  Level Salt Lake Center
08:52PM 40.7189 -115.7125 260° West 450 518 45,000  Level Salt Lake Center
08:53PM 40.7011 -115.8700 262° West 454 522 45,000  Level Salt Lake Center
08:54PM 40.6819 -116.0528 262° West 452 520 45,000  Level Salt Lake Center
08:56PM 40.7053 -116.2117 281° West 463 533 45,000  Level Salt Lake Center
08:57PM 40.7378 -116.3711 285° West 472 543 45,000  Level Salt Lake Center
08:58PM 40.7742 -116.5522 285° West 464 534 45,000  Level Salt Lake Center
08:59PM 40.8061 -116.7064 285° West 461 531 45,000  Level Salt Lake Center
09:00PM 40.8431 -116.8906 285° West 465 535 45,000  Level Salt Lake Center
09:01PM 40.8731 -117.0494 284° West 468 539 45,000  Level Salt Lake Center
09:02PM 40.9061 -117.2350 283° West 467 537 45,000 -120 Level Salt Lake Center
09:03PM 40.9347 -117.3917 284° West 463 533 44,800 -1,140 Descending Salt Lake Center
09:04PM 40.9700 -117.5750 284° West 462 532 42,700 -1,980 Descending Salt Lake Center
09:05PM 40.9994 -117.7344 284° West 465 535 40,800 -1,740 Descending Salt Lake Center
09:06PM 41.0311 -117.9153 283° West 457 526 39,200 -1,860 Descending Salt Lake Center
09:07PM 41.0483 -118.0697 278° West 446 513 37,000 -2,160 Descending Salt Lake Center
09:08PM 41.0600 -118.2275 276° West 448 516 34,800 -2,400 Descending Salt Lake Center
09:09PM 41.0772 -118.4111 277° West 450 518 32,100 -2,400 Descending Salt Lake Center
09:10PM 41.1033 -118.5692 282° West 458 527 30,000 -1,440 Descending Salt Lake Center
09:11PM 41.1125 -118.7617 274° West 467 537 29,200 -1,440 Descending Salt Lake Center
09:12PM 41.0986 -118.9197 263° West 458 527 27,100 -2,100 Descending Salt Lake Center
09:13PM 41.0692 -119.0717 256° West 447 514 24,900 -1,920 Descending Salt Lake Center
09:14PM 41.0544 -119.1689 259° West 435 501 24,000 -720 Descending Oakland Center
09:15PM 41.0244 -119.3350 257° West 422 486 23,800 -600 Descending Oakland Center
09:16PM 40.9475 -119.4325 224° Southwest 403 464 22,800 -1,020 Descending Oakland Center
09:17PM 40.8636 -119.5147 217° Southwest 396 456 21,800 -960 Descending Oakland Center
09:18PM 40.7733 -119.5917 213° Southwest 393 452 20,900 -900 Descending Oakland Center
09:19PM 40.6733 -119.6336 198° South 381 438 20,000 -1,140 Descending Oakland Center
09:20PM 40.5511 -119.6661 191° South 374 430 18,600 -1,380 Descending Oakland Center
09:21PM 40.4517 -119.6642 179° South 366 421 17,200 -1,260 Descending Oakland Center
09:22PM 40.3508 -119.6644 180° South 363 418 16,100 -600 Descending Oakland Center
09:23PM 40.2517 -119.6636 180° South 360 414 16,000 -60 Descending Oakland Center
09:24PM 40.1528 -119.6622 179° South 357 411 16,000  Level Oakland Center
09:25PM 40.0531 -119.6608 179° South 357 411 16,000 -600 Level Oakland Center
09:26PM 39.9522 -119.6614 180° South 361 415 14,800 -1,440 Descending Oakland Center
09:27PM 39.8378 -119.6597 179° South 351 404 13,100 -1,560 Descending Oakland Center
09:28PM 39.7522 -119.6589 180° South 326 375 11,700 -1,140 Descending Oakland Center
09:29PM 39.6731 -119.6592 180° South 299 344 10,800 -720 Descending Oakland Center
09:30PM 39.6167 -119.6500 173° South 257 296 10,500 -420 Descending Northern Cal TRACON
09:31PM 39.5500 -119.6500 180° South 248 285 10,200 -180 Descending Northern Cal TRACON
09:32PM 39.5000 -119.6333 166° South 234 269 10,200 -240 Level Northern Cal TRACON
09:33PM 39.4333 -119.6333 180° South 229 264 9,800 -600 Descending Northern Cal TRACON
09:34PM 39.3833 -119.6833 218° Southwest 196 226 9,000 -900 Descending Northern Cal TRACON
09:35PM 39.3667 -119.7333 247° West 197 227 8,100 -1,080 Descending Northern Cal TRACON
09:35PM 39.3833 -119.7667 303° West 166 191 7,000 -1,200 Descending Northern Cal TRACON
09:37PM 39.4333 -119.7667 360° North 145 167 5,700 -1,080 Descending Northern Cal TRACON
09:37PM 39.4667 -119.7667 360° North 128 147 4,900 -900 Descending Northern Cal TRACON